sensor_id;sensor_type;location;lat;lon;timestamp;pressure;altitude;pressure_sealevel;temperature;humidity
10460;BME280;54412;51.206;6.888;2023-01-26T00:00:55;101830.09;;;2.35;69.58
10460;BME280;54412;51.206;6.888;2023-01-26T00:03:22;101830.03;;;2.17;69.92
10460;BME280;54412;51.206;6.888;2023-01-26T00:05:48;101823.06;;;2.11;69.93
10460;BME280;54412;51.206;6.888;2023-01-26T00:08:14;101825.72;;;2.30;69.87
10460;BME280;54412;51.206;6.888;2023-01-26T00:10:40;101822.19;;;2.09;69.53
10460;BME280;54412;51.206;6.888;2023-01-26T00:13:09;101823.94;;;2.20;69.04
10460;BME280;54412;51.206;6.888;2023-01-26T00:15:35;101820.47;;;2.16;69.58
10460;BME280;54412;51.206;6.888;2023-01-26T00:18:02;101824.06;;;2.62;67.73
10460;BME280;54412;51.206;6.888;2023-01-26T00:20:29;101816.16;;;2.23;68.88
10460;BME280;54412;51.206;6.888;2023-01-26T00:22:54;101811.78;;;2.08;68.94
10460;BME280;54412;51.206;6.888;2023-01-26T00:25:20;101815.28;;;2.18;69.19
10460;BME280;54412;51.206;6.888;2023-01-26T00:27:46;101806.56;;;2.09;68.89
10460;BME280;54412;51.206;6.888;2023-01-26T00:30:12;101800.50;;;2.04;68.54
10460;BME280;54412;51.206;6.888;2023-01-26T00:32:38;101797.88;;;1.94;68.82
10460;BME280;54412;51.206;6.888;2023-01-26T00:35:05;101790.00;;;1.79;69.21
10460;BME280;54412;51.206;6.888;2023-01-26T00:37:31;101798.63;;;1.75;69.83
10460;BME280;54412;51.206;6.888;2023-01-26T00:39:57;101797.78;;;1.80;70.08
10460;BME280;54412;51.206;6.888;2023-01-26T00:42:23;101780.53;;;1.96;69.55
10460;BME280;54412;51.206;6.888;2023-01-26T00:44:50;101786.53;;;1.89;68.59
10460;BME280;54412;51.206;6.888;2023-01-26T00:47:17;101777.03;;;2.00;69.17
10460;BME280;54412;51.206;6.888;2023-01-26T00:49:44;101768.47;;;2.37;67.77
10460;BME280;54412;51.206;6.888;2023-01-26T00:52:11;101773.63;;;2.14;68.25
10460;BME280;54412;51.206;6.888;2023-01-26T00:54:38;101766.63;;;1.95;68.45
10460;BME280;54412;51.206;6.888;2023-01-26T00:57:04;101752.63;;;1.57;69.32
10460;BME280;54412;51.206;6.888;2023-01-26T00:59:29;101750.94;;;1.71;69.99
10460;BME280;54412;51.206;6.888;2023-01-26T01:01:58;101752.69;;;1.72;69.65
10460;BME280;54412;51.206;6.888;2023-01-26T01:04:24;101747.53;;;1.84;68.89
10460;BME280;54412;51.206;6.888;2023-01-26T01:06:50;101752.78;;;2.05;68.29
10460;BME280;54412;51.206;6.888;2023-01-26T01:09:16;101738.91;;;2.02;68.56
10460;BME280;54412;51.206;6.888;2023-01-26T01:11:42;101731.03;;;1.78;69.17
10460;BME280;54412;51.206;6.888;2023-01-26T01:14:11;101734.41;;;1.56;69.76
10460;BME280;54412;51.206;6.888;2023-01-26T01:16:38;101737.94;;;1.73;69.98
10460;BME280;54412;51.206;6.888;2023-01-26T01:19:04;101731.84;;;1.69;69.55
10460;BME280;54412;51.206;6.888;2023-01-26T01:21:30;101727.41;;;1.44;70.96
10460;BME280;54412;51.206;6.888;2023-01-26T01:23:57;101727.53;;;1.68;70.69
10460;BME280;54412;51.206;6.888;2023-01-26T01:26:23;101730.09;;;1.58;70.86
10460;BME280;54412;51.206;6.888;2023-01-26T01:28:53;101724.06;;;1.65;70.42
10460;BME280;54412;51.206;6.888;2023-01-26T01:31:23;101720.63;;;1.85;70.16
10460;BME280;54412;51.206;6.888;2023-01-26T01:33:50;101721.47;;;1.74;70.70
10460;BME280;54412;51.206;6.888;2023-01-26T01:36:16;101724.13;;;1.80;69.76
10460;BME280;54412;51.206;6.888;2023-01-26T01:38:44;101722.38;;;1.86;69.61
10460;BME280;54412;51.206;6.888;2023-01-26T01:41:12;101723.22;;;1.69;70.63
10460;BME280;54412;51.206;6.888;2023-01-26T01:43:39;101717.16;;;1.77;70.15
10460;BME280;54412;51.206;6.888;2023-01-26T01:46:34;101713.72;;;1.81;70.62
10460;BME280;54412;51.206;6.888;2023-01-26T01:49:23;101721.50;;;1.81;70.31
10460;BME280;54412;51.206;6.888;2023-01-26T01:52:14;101723.28;;;1.96;69.85
10460;BME280;54412;51.206;6.888;2023-01-26T01:55:05;101722.31;;;1.68;70.52
10460;BME280;54412;51.206;6.888;2023-01-26T01:57:40;101717.91;;;1.46;71.65
10460;BME280;54412;51.206;6.888;2023-01-26T02:00:13;101711.09;;;1.84;71.34
10460;BME280;54412;51.206;6.888;2023-01-26T02:02:42;101709.34;;;1.82;70.68
10460;BME280;54412;51.206;6.888;2023-01-26T02:05:26;101713.69;;;1.74;70.62
10460;BME280;54412;51.206;6.888;2023-01-26T02:07:56;101703.28;;;1.72;70.74
10460;BME280;54412;51.206;6.888;2023-01-26T02:10:23;101704.19;;;1.83;70.80
10460;BME280;54412;51.206;6.888;2023-01-26T02:12:55;101716.28;;;1.77;71.28
10460;BME280;54412;51.206;6.888;2023-01-26T02:15:22;101705.06;;;1.87;71.98
10460;BME280;54412;51.206;6.888;2023-01-26T02:17:51;101696.38;;;1.97;70.57
10460;BME280;54412;51.206;6.888;2023-01-26T02:20:44;101693.78;;;1.85;70.71
10460;BME280;54412;51.206;6.888;2023-01-26T02:28:16;101685.91;;;1.71;72.28
10460;BME280;54412;51.206;6.888;2023-01-26T02:30:42;101685.94;;;1.79;71.56
10460;BME280;54412;51.206;6.888;2023-01-26T02:33:22;101684.25;;;1.87;71.90
10460;BME280;54412;51.206;6.888;2023-01-26T02:35:48;101677.28;;;1.87;71.40
10460;BME280;54412;51.206;6.888;2023-01-26T02:38:15;101684.19;;;1.75;72.05
10460;BME280;54412;51.206;6.888;2023-01-26T02:40:58;101685.09;;;1.84;72.44
10460;BME280;54412;51.206;6.888;2023-01-26T02:43:27;101680.72;;;1.71;72.63
10460;BME280;54412;51.206;6.888;2023-01-26T02:45:53;101680.69;;;1.59;73.26
10460;BME280;54412;51.206;6.888;2023-01-26T02:48:19;101671.97;;;1.51;73.70
10460;BME280;54412;51.206;6.888;2023-01-26T02:51:04;101674.66;;;1.77;72.71
10460;BME280;54412;51.206;6.888;2023-01-26T02:53:30;101677.25;;;1.66;73.63
10460;BME280;54412;51.206;6.888;2023-01-26T02:55:56;101673.81;;;1.81;72.67
10460;BME280;54412;51.206;6.888;2023-01-26T02:58:22;101670.31;;;1.73;73.49
10460;BME280;54412;51.206;6.888;2023-01-26T03:00:48;101667.72;;;1.67;73.39
10460;BME280;54412;51.206;6.888;2023-01-26T03:03:32;101672.06;;;1.75;73.00
10460;BME280;54412;51.206;6.888;2023-01-26T03:06:09;101674.69;;;1.86;73.10
10460;BME280;54412;51.206;6.888;2023-01-26T03:08:36;101671.25;;;2.02;72.30
10460;BME280;54412;51.206;6.888;2023-01-26T03:11:03;101669.47;;;1.87;72.34
10460;BME280;54412;51.206;6.888;2023-01-26T03:13:29;101661.69;;;1.81;72.82
10460;BME280;54412;51.206;6.888;2023-01-26T03:15:55;101664.28;;;1.80;73.07
10460;BME280;54412;51.206;6.888;2023-01-26T03:18:27;101663.44;;;1.90;73.39
10460;BME280;54412;51.206;6.888;2023-01-26T03:21:15;101659.03;;;1.68;73.63
10460;BME280;54412;51.206;6.888;2023-01-26T03:24:01;101652.97;;;1.75;73.27
10460;BME280;54412;51.206;6.888;2023-01-26T03:26:45;101653.88;;;1.84;73.04
10460;BME280;54412;51.206;6.888;2023-01-26T03:29:31;101649.50;;;1.73;73.52
10460;BME280;54412;51.206;6.888;2023-01-26T03:31:57;101652.13;;;1.77;73.37
10460;BME280;54412;51.206;6.888;2023-01-26T03:34:24;101652.94;;;1.49;74.61
10460;BME280;54412;51.206;6.888;2023-01-26T03:36:50;101650.34;;;1.52;74.38
10460;BME280;54412;51.206;6.888;2023-01-26T03:39:16;101648.59;;;1.48;74.77
10460;BME280;54412;51.206;6.888;2023-01-26T03:42:00;101644.34;;;1.74;75.02
10460;BME280;54412;51.206;6.888;2023-01-26T03:44:45;101653.84;;;1.78;74.33
10460;BME280;54412;51.206;6.888;2023-01-26T03:47:34;101648.66;;;1.72;74.46
10460;BME280;54412;51.206;6.888;2023-01-26T03:50:19;101649.53;;;1.89;74.67
10460;BME280;54412;51.206;6.888;2023-01-26T03:53:16;101635.69;;;1.83;72.87
10460;BME280;54412;51.206;6.888;2023-01-26T03:56:02;101639.97;;;1.66;74.41
10460;BME280;54412;51.206;6.888;2023-01-26T03:58:54;101633.88;;;1.62;74.75
10460;BME280;54412;51.206;6.888;2023-01-26T04:01:24;101626.09;;;1.73;74.55
10460;BME280;54412;51.206;6.888;2023-01-26T04:03:55;101623.56;;;2.03;73.52
10460;BME280;54412;51.206;6.888;2023-01-26T04:06:43;101637.41;;;1.81;74.61
10460;BME280;54412;51.206;6.888;2023-01-26T04:09:27;101640.03;;;1.87;74.50
10460;BME280;54412;51.206;6.888;2023-01-26T04:11:53;101644.34;;;1.98;73.84
10460;BME280;54412;51.206;6.888;2023-01-26T04:14:19;101646.94;;;1.98;74.06
10460;BME280;54412;51.206;6.888;2023-01-26T04:17:04;101643.50;;;1.92;74.65
10460;BME280;54412;51.206;6.888;2023-01-26T04:19:48;101647.81;;;1.91;74.09
10460;BME280;54412;51.206;6.888;2023-01-26T04:22:38;101640.84;;;1.78;75.09
10460;BME280;54412;51.206;6.888;2023-01-26T04:25:16;101643.50;;;1.92;75.10
10460;BME280;54412;51.206;6.888;2023-01-26T04:27:43;101650.44;;;2.02;74.67
10460;BME280;54412;51.206;6.888;2023-01-26T04:30:13;101638.31;;;2.11;74.87
10460;BME280;54412;51.206;6.888;2023-01-26T04:32:39;101640.03;;;2.35;74.37
10460;BME280;54412;51.206;6.888;2023-01-26T04:35:07;101640.88;;;2.34;74.44
10460;BME280;54412;51.206;6.888;2023-01-26T04:37:34;101640.00;;;2.65;73.71
10460;BME280;54412;51.206;6.888;2023-01-26T04:39:59;101630.41;;;2.78;73.00
10460;BME280;54412;51.206;6.888;2023-01-26T04:42:25;101635.66;;;2.66;72.32
10460;BME280;54412;51.206;6.888;2023-01-26T04:44:52;101630.41;;;2.76;72.13
10460;BME280;54412;51.206;6.888;2023-01-26T04:47:19;101634.84;;;2.16;73.52
10460;BME280;54412;51.206;6.888;2023-01-26T04:49:45;101637.44;;;2.19;73.49
10460;BME280;54412;51.206;6.888;2023-01-26T04:52:11;101635.69;;;2.28;73.75
10460;BME280;54412;51.206;6.888;2023-01-26T04:54:38;101639.16;;;2.33;73.90
10460;BME280;54412;51.206;6.888;2023-01-26T04:57:05;101623.56;;;2.30;73.79
10460;BME280;54412;51.206;6.888;2023-01-26T04:59:30;101623.56;;;2.13;73.82
10460;BME280;54412;51.206;6.888;2023-01-26T05:01:56;101630.47;;;2.14;73.49
10460;BME280;54412;51.206;6.888;2023-01-26T05:04:22;101627.91;;;2.10;73.74
10460;BME280;54412;51.206;6.888;2023-01-26T05:06:47;101623.56;;;2.32;75.44
10460;BME280;54412;51.206;6.888;2023-01-26T05:09:13;101620.91;;;2.57;74.60
10460;BME280;54412;51.206;6.888;2023-01-26T05:11:39;101625.19;;;2.84;72.58
10460;BME280;54412;51.206;6.888;2023-01-26T05:14:04;101622.53;;;2.90;72.45
10460;BME280;54412;51.206;6.888;2023-01-26T05:16:30;101626.94;;;2.80;71.38
10460;BME280;54412;51.206;6.888;2023-01-26T05:18:56;101628.63;;;2.95;72.32
10460;BME280;54412;51.206;6.888;2023-01-26T05:21:22;101633.81;;;3.01;71.63
10460;BME280;54412;51.206;6.888;2023-01-26T05:23:52;101622.63;;;2.73;72.53
10460;BME280;54412;51.206;6.888;2023-01-26T05:26:18;101627.78;;;2.88;71.93
10460;BME280;54412;51.206;6.888;2023-01-26T05:28:44;101632.09;;;2.88;71.88
10460;BME280;54412;51.206;6.888;2023-01-26T05:31:09;101626.97;;;2.70;72.54
10460;BME280;54412;51.206;6.888;2023-01-26T05:33:35;101640.84;;;2.61;72.75
10460;BME280;54412;51.206;6.888;2023-01-26T05:36:06;101631.34;;;2.33;73.38
10460;BME280;54412;51.206;6.888;2023-01-26T05:38:33;101635.69;;;2.39;73.84
10460;BME280;54412;51.206;6.888;2023-01-26T05:40:59;101634.81;;;2.52;73.75
10460;BME280;54412;51.206;6.888;2023-01-26T05:43:24;101633.09;;;2.28;74.70
10460;BME280;54412;51.206;6.888;2023-01-26T05:45:50;101635.69;;;2.39;74.32
10460;BME280;54412;51.206;6.888;2023-01-26T05:48:16;101635.69;;;2.36;74.95
10460;BME280;54412;51.206;6.888;2023-01-26T05:50:42;101637.44;;;2.25;75.20
10460;BME280;54412;51.206;6.888;2023-01-26T05:53:08;101639.16;;;2.32;74.78
10460;BME280;54412;51.206;6.888;2023-01-26T05:55:34;101640.91;;;2.13;75.84
10460;BME280;54412;51.206;6.888;2023-01-26T05:57:59;101637.41;;;2.32;75.39
10460;BME280;54412;51.206;6.888;2023-01-26T06:00:25;101642.63;;;2.44;74.75
10460;BME280;54412;51.206;6.888;2023-01-26T06:02:51;101640.03;;;2.29;75.43
10460;BME280;54412;51.206;6.888;2023-01-26T06:05:17;101641.78;;;2.24;75.73
10460;BME280;54412;51.206;6.888;2023-01-26T06:07:42;101647.81;;;2.11;75.42
10460;BME280;54412;51.206;6.888;2023-01-26T06:10:09;101651.31;;;2.18;76.25
10460;BME280;54412;51.206;6.888;2023-01-26T06:12:35;101650.44;;;2.31;75.92
10460;BME280;54412;51.206;6.888;2023-01-26T06:15:04;101650.44;;;2.29;75.68
10460;BME280;54412;51.206;6.888;2023-01-26T06:17:31;101652.19;;;2.35;75.39
10460;BME280;54412;51.206;6.888;2023-01-26T06:19:56;101653.88;;;2.45;75.84
10460;BME280;54412;51.206;6.888;2023-01-26T06:22:23;101652.19;;;2.35;75.96
10460;BME280;54412;51.206;6.888;2023-01-26T06:24:48;101647.84;;;2.25;76.19
10460;BME280;54412;51.206;6.888;2023-01-26T06:27:16;101647.84;;;2.25;76.08
10460;BME280;54412;51.206;6.888;2023-01-26T06:29:43;101648.72;;;2.18;77.04
10460;BME280;54412;51.206;6.888;2023-01-26T06:32:14;101653.03;;;2.20;76.78
10460;BME280;54412;51.206;6.888;2023-01-26T06:34:40;101655.63;;;2.20;77.02
10460;BME280;54412;51.206;6.888;2023-01-26T06:37:06;101645.22;;;2.31;76.78
10460;BME280;54412;51.206;6.888;2023-01-26T06:39:32;101647.81;;;2.59;75.78
10460;BME280;54412;51.206;6.888;2023-01-26T06:41:58;101659.13;;;2.48;75.87
10460;BME280;54412;51.206;6.888;2023-01-26T06:44:23;101654.78;;;2.59;75.83
10460;BME280;54412;51.206;6.888;2023-01-26T06:46:49;101659.97;;;2.47;76.09
10460;BME280;54412;51.206;6.888;2023-01-26T06:49:15;101651.31;;;2.39;76.38
10460;BME280;54412;51.206;6.888;2023-01-26T06:54:41;101643.50;;;2.55;75.93
10460;BME280;54412;51.206;6.888;2023-01-26T06:57:07;101648.72;;;2.21;76.59
10460;BME280;54412;51.206;6.888;2023-01-26T06:59:33;101651.31;;;2.30;76.24
10460;BME280;54412;51.206;6.888;2023-01-26T07:01:59;101653.94;;;2.36;76.68
10460;BME280;54412;51.206;6.888;2023-01-26T07:04:25;101652.16;;;2.38;76.96
10460;BME280;54412;51.206;6.888;2023-01-26T07:06:52;101666.03;;;2.49;76.18
10460;BME280;54412;51.206;6.888;2023-01-26T07:09:17;101662.59;;;2.33;76.56
10460;BME280;54412;51.206;6.888;2023-01-26T07:11:43;101660.00;;;2.41;76.33
10460;BME280;54412;51.206;6.888;2023-01-26T07:14:08;101666.91;;;2.42;76.43
10460;BME280;54412;51.206;6.888;2023-01-26T07:16:34;101660.84;;;2.44;76.48
10460;BME280;54412;51.206;6.888;2023-01-26T07:19:00;101660.81;;;2.59;75.65
10460;BME280;54412;51.206;6.888;2023-01-26T07:21:26;101655.63;;;2.38;76.24
10460;BME280;54412;51.206;6.888;2023-01-26T07:23:52;101663.47;;;2.37;76.47
10460;BME280;54412;51.206;6.888;2023-01-26T07:26:19;101658.25;;;2.46;76.20
10460;BME280;54412;51.206;6.888;2023-01-26T07:28:44;101662.56;;;2.53;75.97
10460;BME280;54412;51.206;6.888;2023-01-26T07:31:11;101660.00;;;2.41;75.90
10460;BME280;54412;51.206;6.888;2023-01-26T07:33:37;101658.25;;;2.34;76.64
10460;BME280;54412;51.206;6.888;2023-01-26T07:36:03;101649.56;;;2.35;76.00
10460;BME280;54412;51.206;6.888;2023-01-26T07:38:29;101645.25;;;2.43;76.42
10460;BME280;54412;51.206;6.888;2023-01-26T07:40:56;101651.31;;;2.36;76.16
10460;BME280;54412;51.206;6.888;2023-01-26T07:43:22;101643.50;;;2.28;75.76
10460;BME280;54412;51.206;6.888;2023-01-26T07:45:51;101658.22;;;2.41;76.17
10460;BME280;54412;51.206;6.888;2023-01-26T07:48:20;101662.59;;;2.50;75.99
10460;BME280;54412;51.206;6.888;2023-01-26T07:50:46;101661.72;;;2.49;76.34
10460;BME280;54412;51.206;6.888;2023-01-26T07:53:13;101662.59;;;2.33;76.32
10460;BME280;54412;51.206;6.888;2023-01-26T07:55:40;101653.91;;;2.39;76.38
10460;BME280;54412;51.206;6.888;2023-01-26T07:58:09;101659.13;;;2.40;76.26
10460;BME280;54412;51.206;6.888;2023-01-26T08:00:35;101660.78;;;2.79;75.86
10460;BME280;54412;51.206;6.888;2023-01-26T08:03:01;101659.94;;;2.66;75.09
10460;BME280;54412;51.206;6.888;2023-01-26T08:05:26;101661.69;;;2.45;75.97
10460;BME280;54412;51.206;6.888;2023-01-26T08:07:56;101663.41;;;2.68;75.41
10460;BME280;54412;51.206;6.888;2023-01-26T08:10:22;101668.66;;;2.53;76.49
10460;BME280;54412;51.206;6.888;2023-01-26T08:12:48;101672.13;;;2.64;76.01
10460;BME280;54412;51.206;6.888;2023-01-26T08:15:14;101671.25;;;2.64;75.97
10460;BME280;54412;51.206;6.888;2023-01-26T08:17:39;101668.63;;;2.74;75.95
10460;BME280;54412;51.206;6.888;2023-01-26T08:20:05;101678.22;;;2.41;76.57
10460;BME280;54412;51.206;6.888;2023-01-26T08:22:32;101671.25;;;2.49;76.96
10460;BME280;54412;51.206;6.888;2023-01-26T08:24:57;101670.41;;;2.44;76.36
10460;BME280;54412;51.206;6.888;2023-01-26T08:27:23;101665.19;;;2.48;76.81
10460;BME280;54412;51.206;6.888;2023-01-26T08:29:49;101674.72;;;2.67;76.36
10460;BME280;54412;51.206;6.888;2023-01-26T08:32:15;101678.19;;;2.60;76.53
10460;BME280;54412;51.206;6.888;2023-01-26T08:34:41;101678.22;;;2.48;76.20
10460;BME280;54412;51.206;6.888;2023-01-26T08:37:07;101682.53;;;2.52;76.48
10460;BME280;54412;51.206;6.888;2023-01-26T08:39:32;101682.53;;;2.57;76.74
10460;BME280;54412;51.206;6.888;2023-01-26T08:41:58;101688.63;;;2.41;77.08
10460;BME280;54412;51.206;6.888;2023-01-26T08:44:24;101686.00;;;2.47;77.42
10460;BME280;54412;51.206;6.888;2023-01-26T08:46:49;101682.53;;;2.70;76.60
10460;BME280;54412;51.206;6.888;2023-01-26T08:49:15;101686.00;;;2.66;76.44
10460;BME280;54412;51.206;6.888;2023-01-26T08:51:41;101687.72;;;2.93;75.63
10460;BME280;54412;51.206;6.888;2023-01-26T08:54:07;101689.44;;;2.77;75.57
10460;BME280;54412;51.206;6.888;2023-01-26T08:56:33;101691.19;;;2.80;75.63
10460;BME280;54412;51.206;6.888;2023-01-26T08:58:59;101685.09;;;2.81;75.69
10460;BME280;54412;51.206;6.888;2023-01-26T09:01:26;101686.00;;;2.77;75.88
10460;BME280;54412;51.206;6.888;2023-01-26T09:03:52;101685.09;;;2.87;75.42
10460;BME280;54412;51.206;6.888;2023-01-26T09:06:20;101698.16;;;2.69;76.13
10460;BME280;54412;51.206;6.888;2023-01-26T09:08:45;101683.38;;;2.95;75.71
10460;BME280;54412;51.206;6.888;2023-01-26T09:11:11;101695.50;;;2.88;75.90
10460;BME280;54412;51.206;6.888;2023-01-26T09:13:38;101700.75;;;2.84;75.44
10460;BME280;54412;51.206;6.888;2023-01-26T09:16:07;101704.19;;;2.98;75.55
10460;BME280;54412;51.206;6.888;2023-01-26T09:18:33;101698.94;;;3.16;75.57
10460;BME280;54412;51.206;6.888;2023-01-26T09:21:04;101700.72;;;2.94;75.89
10460;BME280;54412;51.206;6.888;2023-01-26T09:23:32;101708.53;;;2.96;75.73
10460;BME280;54412;51.206;6.888;2023-01-26T09:25:58;101705.09;;;2.89;75.49
10460;BME280;54412;51.206;6.888;2023-01-26T09:28:24;101712.91;;;2.74;76.44
10460;BME280;54412;51.206;6.888;2023-01-26T09:30:49;101708.56;;;2.79;76.66
10460;BME280;54412;51.206;6.888;2023-01-26T09:33:15;101713.72;;;2.99;76.44
10460;BME280;54412;51.206;6.888;2023-01-26T09:35:41;101718.09;;;3.01;75.81
10460;BME280;54412;51.206;6.888;2023-01-26T09:38:06;101724.16;;;3.03;75.81
10460;BME280;54412;51.206;6.888;2023-01-26T09:40:56;101718.09;;;2.92;75.91
10460;BME280;54412;51.206;6.888;2023-01-26T09:43:43;101707.72;;;2.80;76.43
10460;BME280;54412;51.206;6.888;2023-01-26T09:49:45;101705.94;;;2.87;76.19
10460;BME280;54412;51.206;6.888;2023-01-26T09:52:50;101710.25;;;3.10;75.37
10460;BME280;54412;51.206;6.888;2023-01-26T09:55:21;101703.25;;;3.26;74.67
10460;BME280;54412;51.206;6.888;2023-01-26T09:57:52;101705.91;;;2.97;75.12
10460;BME280;54412;51.206;6.888;2023-01-26T10:00:40;101709.34;;;3.17;75.30
10460;BME280;54412;51.206;6.888;2023-01-26T10:06:33;101696.34;;;3.14;75.51
10460;BME280;54412;51.206;6.888;2023-01-26T10:11:57;101685.06;;;2.97;75.73
10460;BME280;54412;51.206;6.888;2023-01-26T10:14:36;101682.47;;;3.02;75.81
10460;BME280;54412;51.206;6.888;2023-01-26T10:17:23;101693.63;;;3.37;75.87
10460;BME280;54412;51.206;6.888;2023-01-26T10:19:59;101687.50;;;3.46;75.44
10460;BME280;54412;51.206;6.888;2023-01-26T10:22:39;101681.31;;;3.74;73.88
10460;BME280;54412;51.206;6.888;2023-01-26T10:25:19;101668.38;;;3.50;75.53
10460;BME280;54412;51.206;6.888;2023-01-26T10:27:45;101683.25;;;3.22;76.26
10460;BME280;54412;51.206;6.888;2023-01-26T10:30:16;101689.09;;;3.77;74.99
10460;BME280;54412;51.206;6.888;2023-01-26T10:32:46;101677.81;;;3.75;74.86
10460;BME280;54412;51.206;6.888;2023-01-26T10:35:23;101678.75;;;3.62;74.69
10460;BME280;54412;51.206;6.888;2023-01-26T10:37:49;101683.16;;;3.54;74.83
10460;BME280;54412;51.206;6.888;2023-01-26T10:40:18;101678.84;;;3.35;75.42
10460;BME280;54412;51.206;6.888;2023-01-26T10:43:02;101667.56;;;3.39;75.49
10460;BME280;54412;51.206;6.888;2023-01-26T10:45:32;101672.03;;;3.11;76.52
10460;BME280;54412;51.206;6.888;2023-01-26T10:48:13;101676.19;;;3.50;76.29
10460;BME280;54412;51.206;6.888;2023-01-26T10:50:41;101671.88;;;3.47;75.51
10460;BME280;54412;51.206;6.888;2023-01-26T10:58:49;101669.41;;;3.12;77.70
10460;BME280;54412;51.206;6.888;2023-01-26T11:01:17;101661.34;;;3.62;76.01
10460;BME280;54412;51.206;6.888;2023-01-26T11:04:10;101663.28;;;3.19;77.07
10460;BME280;54412;51.206;6.888;2023-01-26T11:06:39;101669.34;;;3.31;77.67
10460;BME280;54412;51.206;6.888;2023-01-26T11:09:28;101660.53;;;3.51;77.30
10460;BME280;54412;51.206;6.888;2023-01-26T11:12:02;101657.09;;;3.45;77.25
10460;BME280;54412;51.206;6.888;2023-01-26T11:14:31;101660.31;;;3.92;75.48
10460;BME280;54412;51.206;6.888;2023-01-26T11:17:13;101656.84;;;3.87;75.90
10460;BME280;54412;51.206;6.888;2023-01-26T11:20:07;101654.31;;;3.79;75.94
10460;BME280;54412;51.206;6.888;2023-01-26T11:23:04;101647.38;;;3.75;75.51
10460;BME280;54412;51.206;6.888;2023-01-26T11:26:12;101650.19;;;3.38;76.37
10460;BME280;54412;51.206;6.888;2023-01-26T11:29:00;101637.03;;;3.57;76.16
10460;BME280;54412;51.206;6.888;2023-01-26T11:31:56;101643.00;;;3.79;76.03
10460;BME280;54412;51.206;6.888;2023-01-26T11:34:40;101643.94;;;3.64;75.87
10460;BME280;54412;51.206;6.888;2023-01-26T11:52:24;101657.94;;;3.51;77.34
10460;BME280;54412;51.206;6.888;2023-01-26T11:58:07;101646.75;;;3.22;77.74
10460;BME280;54412;51.206;6.888;2023-01-26T12:00:51;101643.22;;;3.37;77.66
10460;BME280;54412;51.206;6.888;2023-01-26T12:03:50;101637.78;;;3.77;76.54
10460;BME280;54412;51.206;6.888;2023-01-26T12:06:39;101643.19;;;3.46;77.20
10460;BME280;54412;51.206;6.888;2023-01-26T12:11:56;101633.63;;;3.46;78.13
10460;BME280;54412;51.206;6.888;2023-01-26T12:17:57;101627.53;;;3.47;77.14
10460;BME280;54412;51.206;6.888;2023-01-26T12:20:50;101615.47;;;3.25;78.65
10460;BME280;54412;51.206;6.888;2023-01-26T12:23:36;101603.94;;;3.67;77.39
10460;BME280;54412;51.206;6.888;2023-01-26T12:26:16;101595.44;;;3.38;78.58
10460;BME280;54412;51.206;6.888;2023-01-26T12:28:48;101600.53;;;3.57;78.71
10460;BME280;54412;51.206;6.888;2023-01-26T12:31:57;101589.16;;;3.64;77.57
10460;BME280;54412;51.206;6.888;2023-01-26T12:34:32;101591.94;;;3.39;79.40
10460;BME280;54412;51.206;6.888;2023-01-26T12:40:32;101589.38;;;3.34;79.63
10460;BME280;54412;51.206;6.888;2023-01-26T12:46:11;101578.72;;;3.64;79.41
10460;BME280;54412;51.206;6.888;2023-01-26T12:48:45;101573.56;;;3.55;79.47
10460;BME280;54412;51.206;6.888;2023-01-26T12:51:26;101574.41;;;3.63;78.35
10460;BME280;54412;51.206;6.888;2023-01-26T12:54:09;101568.09;;;3.93;78.03
10460;BME280;54412;51.206;6.888;2023-01-26T12:56:50;101564.50;;;4.04;77.46
10460;BME280;54412;51.206;6.888;2023-01-26T12:59:31;101564.03;;;3.50;79.26
10460;BME280;54412;51.206;6.888;2023-01-26T13:02:00;101574.53;;;3.42;80.75
10460;BME280;54412;51.206;6.888;2023-01-26T13:04:35;101565.75;;;3.60;79.76
10460;BME280;54412;51.206;6.888;2023-01-26T13:07:33;101576.09;;;3.70;79.11
10460;BME280;54412;51.206;6.888;2023-01-26T13:15:45;101579.50;;;3.81;79.33
10460;BME280;54412;51.206;6.888;2023-01-26T13:18:16;101566.44;;;3.81;78.73
10460;BME280;54412;51.206;6.888;2023-01-26T13:20:48;101571.81;;;3.63;79.19
10460;BME280;54412;51.206;6.888;2023-01-26T13:23:40;101573.59;;;3.49;80.29
10460;BME280;54412;51.206;6.888;2023-01-26T13:26:47;101569.13;;;3.72;79.50
10460;BME280;54412;51.206;6.888;2023-01-26T13:31:56;101574.22;;;3.86;79.64
10460;BME280;54412;51.206;6.888;2023-01-26T13:34:30;101575.84;;;4.00;78.78
10460;BME280;54412;51.206;6.888;2023-01-26T13:37:12;101567.28;;;3.82;78.54
10460;BME280;54412;51.206;6.888;2023-01-26T13:39:46;101562.97;;;3.79;78.97
10460;BME280;54412;51.206;6.888;2023-01-26T13:42:31;101564.53;;;4.01;78.85
10460;BME280;54412;51.206;6.888;2023-01-26T13:45:07;101562.03;;;3.89;79.62
10460;BME280;54412;51.206;6.888;2023-01-26T13:47:44;101552.38;;;4.00;78.67
10460;BME280;54412;51.206;6.888;2023-01-26T13:50:34;101549.88;;;3.88;79.80
10460;BME280;54412;51.206;6.888;2023-01-26T13:55:58;101564.47;;;4.09;79.06
10460;BME280;54412;51.206;6.888;2023-01-26T13:58:24;101557.69;;;3.90;79.10
10460;BME280;54412;51.206;6.888;2023-01-26T14:01:03;101561.16;;;3.87;79.77
10460;BME280;54412;51.206;6.888;2023-01-26T14:03:30;101560.31;;;3.88;79.78
10460;BME280;54412;51.206;6.888;2023-01-26T14:06:17;101560.38;;;3.76;79.87
10460;BME280;54412;51.206;6.888;2023-01-26T14:08:54;101552.66;;;3.64;80.65
10460;BME280;54412;51.206;6.888;2023-01-26T14:11:23;101553.34;;;3.86;79.89
10460;BME280;54412;51.206;6.888;2023-01-26T14:13:56;101555.22;;;3.70;80.87
10460;BME280;54412;51.206;6.888;2023-01-26T14:19:04;101549.00;;;3.86;80.64
10460;BME280;54412;51.206;6.888;2023-01-26T14:21:31;101559.50;;;3.74;81.45
10460;BME280;54412;51.206;6.888;2023-01-26T14:23:58;101551.69;;;3.74;81.32
10460;BME280;54412;51.206;6.888;2023-01-26T14:26:31;101555.03;;;3.93;80.90
10460;BME280;54412;51.206;6.888;2023-01-26T14:28:59;101555.84;;;3.99;80.87
10460;BME280;54412;51.206;6.888;2023-01-26T14:31:27;101556.84;;;3.82;81.06